Cooks, MI (49817)

3:13 PM EDT on October 01, 2016 (GMT -0400)
Garden Corners, Michigan | | Change Station

Elev 587 ft 45.90 °N, 86.55 °W | Updated 3 minutes ago

Overcast
Overcast
60.2 °F
Feels Like 60.2 °F
N
4.0
Wind Variable Wind from ENE
Gusts 7.0 mph

Today
High -- | Low -- °F
--% Chance of Precip.
Yesterday
High -- | Low -- °F
Precip. -- in
Pressure 30.12 in
Visibility 10.0 miles
Clouds Overcast 1400 ft
Dew Point 56 °F
Humidity 86%
Rainfall 0.07 in
Snow Depth Not available.
7:45 AM 7:25 PM
New Moon, 1% visible
METAR KISQ 011854Z AUTO 04005KT 10SM OVC014 15/13 A3012 RMK AO2 T01470129
Pressure 30.12 in
Visibility 10.0 miles
Clouds Overcast 1400 ft
Dew Point 56 °F
Humidity 86%
Rainfall 0.07 in
Snow Depth Not available.
7:45 AM 7:25 PM
New Moon, 1% visible
METAR KISQ 011854Z AUTO 04005KT 10SM OVC014 15/13 A3012 RMK AO2 T01470129

10-Day Weather Forecast

Almanac

Astronomy

Oct. 01, 2016 Rise Set
Actual Time
Civil Twilight
Nautical Twilight
Astronomical Twilight
Moon
Length of Visible Light
Length of Day
Tomorrow will be .
, % of the Moon is Illuminated

Today's Extremes

State Highs State Lows

Community

WunderPhotos

Upload Photos

1,942,999 photos uploaded!

WunderBlog® & News

Nearby

Air Quality

  Air Quality AQ Index Pollutant
Not available.

Snow Depth

Station Depth Elevation

Earthquake Activity

City Distance Mag. Time & Date
Minimum magnitude displayed is 2.5.

Coastal Water Temperatures

Place Temperature

Stations

Nearby Weather Stations

Station Location Temp. Windchill Dew Point Humidity Wind Precip. Elev Updated Type
                   

Watches & Warnings

There are currently no watches in effect.